Time;durP1;ratioP1;P1;durP2;ratioP2;P2;SDS_P1;SDS_P2;PMS_P1;PMS_P2;Temp;Humidity;BMP_temperature;BMP_pressure;BME280_temperature;BME280_humidity;BME280_pressure;Samples;Min_cycle;Max_cycle;Signal;HPM_P1;HPM_P2
2022/05/27 00:00:48;;;;;;;20.55;13.93;;;14.00;99.90;;;;;;4916894;29;20035;-63
2022/05/27 00:03:15;;;;;;;19.85;13.10;;;14.00;99.90;;;;;;4916650;29;20070;-64
2022/05/27 00:05:41;;;;;;;20.23;12.73;;;14.00;99.90;;;;;;4933373;29;20036;-64
2022/05/27 00:08:07;;;;;;;19.83;13.77;;;13.90;99.90;;;;;;4933351;29;20028;-63
2022/05/27 00:10:34;;;;;;;19.83;12.23;;;13.90;99.90;;;;;;4933867;29;20022;-63
2022/05/27 00:12:59;;;;;;;18.35;11.88;;;13.90;99.90;;;;;;4933298;29;20027;-63
2022/05/27 00:15:25;;;;;;;19.42;15.32;;;13.90;99.90;;;;;;4933465;29;20073;-63
2022/05/27 00:17:51;;;;;;;19.05;16.48;;;13.90;99.90;;;;;;4932694;29;20058;-63
2022/05/27 00:20:16;;;;;;;19.55;16.63;;;13.90;99.90;;;;;;4933654;29;20035;-64
2022/05/27 00:22:42;;;;;;;19.40;15.60;;;13.80;99.90;;;;;;4933626;29;20027;-64
2022/05/27 00:25:08;;;;;;;19.58;16.52;;;13.80;99.90;;;;;;4948263;23;20088;-63
2022/05/27 00:27:34;;;;;;;21.17;16.90;;;13.80;99.90;;;;;;4916473;29;20151;-62
2022/05/27 00:29:59;;;;;;;21.45;17.77;;;13.80;99.90;;;;;;4915696;29;20036;-62
2022/05/27 00:32:25;;;;;;;22.25;17.45;;;13.80;99.90;;;;;;4896149;29;20024;-63
2022/05/27 00:34:51;;;;;;;22.15;17.33;;;13.80;99.90;;;;;;4915746;29;20063;-63
2022/05/27 00:37:16;;;;;;;20.10;17.90;;;13.80;99.90;;;;;;4931686;29;20024;-62
2022/05/27 00:39:42;;;;;;;20.70;18.45;;;13.70;99.90;;;;;;4931447;29;20062;-64
2022/05/27 00:42:08;;;;;;;21.95;17.75;;;13.70;99.90;;;;;;4931903;29;20416;-63
2022/05/27 00:44:34;;;;;;;22.13;18.52;;;13.70;99.90;;;;;;4931705;29;20487;-62
2022/05/27 00:47:12;;;;;;;22.25;18.00;;;13.60;99.90;;;;;;4914599;29;20034;-63
2022/05/27 00:49:53;;;;;;;19.67;17.58;;;13.60;99.90;;;;;;4931899;29;20024;-63
2022/05/27 00:52:21;;;;;;;20.00;17.45;;;13.70;99.90;;;;;;4931781;29;20483;-62
2022/05/27 00:54:47;;;;;;;19.65;17.27;;;13.60;99.90;;;;;;4931521;29;20032;-61
2022/05/27 00:57:17;;;;;;;19.60;17.50;;;13.60;99.90;;;;;;4914311;29;20127;-62
2022/05/27 00:59:53;;;;;;;21.13;19.00;;;13.60;99.90;;;;;;4931756;29;20051;-63
2022/05/27 01:02:19;;;;;;;22.30;19.90;;;13.60;99.90;;;;;;4931601;29;20042;-63
2022/05/27 01:04:46;;;;;;;23.88;21.38;;;13.60;99.90;;;;;;4931262;29;20062;-61
2022/05/27 01:07:12;;;;;;;23.90;21.50;;;13.60;99.90;;;;;;4931469;29;20035;-62
2022/05/27 01:09:41;;;;;;;25.58;23.08;;;13.60;99.90;;;;;;4931254;29;20028;-63
2022/05/27 01:12:36;;;;;;;25.17;22.30;;;13.50;99.90;;;;;;4931369;29;20024;-63
2022/05/27 01:15:14;;;;;;;25.00;22.38;;;13.50;99.90;;;;;;4931256;29;20054;-63
2022/05/27 01:18:10;;;;;;;23.80;21.30;;;13.50;99.90;;;;;;4930986;29;20073;-63
2022/05/27 01:20:54;;;;;;;23.35;20.25;;;13.40;99.90;;;;;;4931186;29;20024;-63
2022/05/27 01:23:22;;;;;;;22.80;19.88;;;13.40;99.90;;;;;;4931242;29;20048;-62
2022/05/27 01:25:54;;;;;;;;;;;13.40;99.90;;;;;;4931375;29;20095;-64
2022/05/27 01:28:31;;;;;;;22.42;20.05;;;13.40;99.90;;;;;;4931172;29;19915;-64
2022/05/27 01:31:09;;;;;;;22.00;19.70;;;13.50;99.90;;;;;;4913121;28;20019;-63
2022/05/27 01:33:54;;;;;;;;;;;13.50;99.90;;;;;;4914633;29;20043;-62
2022/05/27 01:36:38;;;;;;;22.02;19.52;;;13.50;99.90;;;;;;4931265;29;20001;-64
2022/05/27 01:39:10;;;;;;;23.42;20.00;;;13.50;99.90;;;;;;4930937;29;20102;-63
2022/05/27 01:41:54;;;;;;;23.20;20.00;;;13.50;99.90;;;;;;4914296;28;20032;-63
2022/05/27 01:44:32;;;;;;;21.52;19.20;;;13.50;99.90;;;;;;4930858;29;20028;-62
2022/05/27 01:47:01;;;;;;;22.00;18.63;;;13.50;99.90;;;;;;4931160;29;20036;-63
2022/05/27 01:49:29;;;;;;;;;;;13.50;99.90;;;;;;4931412;28;20221;-63
2022/05/27 01:51:57;;;;;;;;;;;13.60;99.90;;;;;;4931510;28;20477;-64
2022/05/27 01:54:47;;;;;;;24.73;21.85;;;13.50;99.90;;;;;;4913869;29;20283;-63
2022/05/27 01:57:20;;;;;;;25.23;20.92;;;13.50;99.90;;;;;;4930881;29;20032;-62
2022/05/27 01:59:59;;;;;;;25.17;22.58;;;13.50;99.90;;;;;;4931075;29;20085;-62
2022/05/27 02:02:29;;;;;;;26.38;23.48;;;13.50;99.90;;;;;;4931020;29;20102;-62
2022/05/27 02:05:00;;;;;;;27.40;24.20;;;13.40;99.90;;;;;;4930418;29;20036;-63
2022/05/27 02:07:33;;;;;;;31.40;25.67;;;13.40;99.90;;;;;;4930380;29;20093;-62
2022/05/27 02:10:07;;;;;;;31.30;28.35;;;13.30;99.90;;;;;;4913721;28;20028;-60
2022/05/27 02:12:39;;;;;;;32.60;29.45;;;13.30;99.90;;;;;;4930570;29;20024;-63
2022/05/27 02:15:43;;;;;;;31.85;28.95;;;13.30;99.90;;;;;;4913549;29;20093;-63
2022/05/27 02:18:22;;;;;;;30.80;27.65;;;13.30;99.90;;;;;;4921810;29;20492;-64
2022/05/27 02:20:56;;;;;;;29.40;26.55;;;13.30;99.90;;;;;;4930825;29;20115;-62
2022/05/27 02:23:30;;;;;;;31.30;25.70;;;13.30;99.90;;;;;;4930590;29;20039;-63
2022/05/27 02:25:57;;;;;;;26.63;23.88;;;13.30;99.90;;;;;;4930269;29;20032;-62
2022/05/27 02:28:37;;;;;;;25.92;23.25;;;13.30;99.90;;;;;;4913670;28;20115;-63
2022/05/27 02:31:09;;;;;;;27.00;22.50;;;13.30;99.90;;;;;;4930535;29;20034;-62
2022/05/27 02:36:28;;;;;;;24.67;22.00;;;13.40;99.90;;;;;;4930665;29;20046;-63
2022/05/27 02:38:54;;;;;;;27.40;24.40;;;13.30;99.90;;;;;;4930059;29;20507;-62
2022/05/27 02:41:37;;;;;;;25.02;22.63;;;13.30;99.90;;;;;;4914690;29;20032;-62
2022/05/27 02:44:15;;;;;;;23.38;20.92;;;13.30;99.90;;;;;;4933740;29;20044;-63
2022/05/27 02:46:53;;;;;;;22.70;20.45;;;13.30;99.90;;;;;;4933490;29;20035;-62
2022/05/27 02:49:40;;;;;;;23.60;21.30;;;13.20;99.90;;;;;;4933237;29;20035;-62
2022/05/27 02:52:31;;;;;;;26.40;23.92;;;13.20;99.90;;;;;;4933523;29;20055;-63
2022/05/27 02:55:18;;;;;;;28.25;25.83;;;13.20;99.90;;;;;;4933333;29;20038;-63
2022/05/27 02:57:47;;;;;;;34.05;31.45;;;13.20;99.90;;;;;;4915997;29;20539;-63
2022/05/27 03:00:18;;;;;;;32.47;29.80;;;13.20;99.90;;;;;;4933240;29;20035;-63
2022/05/27 03:02:44;;;;;;;34.05;31.25;;;13.20;99.90;;;;;;4933321;29;20158;-63
2022/05/27 03:05:10;;;;;;;36.38;33.58;;;13.10;99.90;;;;;;4933114;29;20095;-62
2022/05/27 03:08:07;;;;;;;38.47;35.67;;;13.20;99.90;;;;;;4932734;29;20032;-63
2022/05/27 03:11:01;;;;;;;35.22;32.42;;;13.10;99.90;;;;;;4916008;29;20028;-63
2022/05/27 03:13:44;;;;;;;38.80;35.63;;;13.20;99.90;;;;;;4933037;29;20119;-63
2022/05/27 03:16:25;;;;;;;38.70;35.50;;;13.10;99.90;;;;;;4933204;29;20055;-63
2022/05/27 03:19:00;;;;;;;38.05;34.97;;;13.10;99.90;;;;;;4932736;29;20065;-62
2022/05/27 03:21:46;;;;;;;37.40;34.50;;;13.10;99.90;;;;;;4933051;29;20030;-63
2022/05/27 03:24:42;;;;;;;38.05;35.05;;;13.20;99.90;;;;;;4932102;29;20039;-62
2022/05/27 03:27:20;;;;;;;40.25;36.97;;;13.10;99.90;;;;;;4933000;29;20419;-61
2022/05/27 03:29:49;;;;;;;38.08;35.10;;;13.10;99.90;;;;;;4932926;29;20051;-62
2022/05/27 03:32:37;;;;;;;39.63;36.45;;;13.10;99.90;;;;;;4915760;29;20060;-62
2022/05/27 03:35:27;;;;;;;38.33;35.17;;;13.10;99.90;;;;;;4932850;29;20081;-61
2022/05/27 03:37:59;;;;;;;36.95;34.03;;;13.10;99.90;;;;;;4932394;29;20476;-63
2022/05/27 03:40:42;;;;;;;39.80;36.70;;;13.10;99.90;;;;;;4932747;29;20035;-62
2022/05/27 03:43:10;;;;;;;38.90;35.65;;;13.10;99.90;;;;;;4932467;29;20059;-62
2022/05/27 03:45:57;;;;;;;37.58;34.50;;;13.10;99.90;;;;;;4932549;29;20492;-62
2022/05/27 03:48:25;;;;;;;37.97;34.97;;;13.10;99.90;;;;;;4915282;29;20050;-67
2022/05/27 03:50:54;;;;;;;36.90;33.70;;;13.10;99.90;;;;;;4932642;29;20024;-62
2022/05/27 03:53:20;;;;;;;;;;;13.10;99.90;;;;;;4932709;29;20039;-62
2022/05/27 03:55:45;;;;;;;37.42;34.17;;;13.10;99.90;;;;;;4932587;29;20437;-62
2022/05/27 03:58:15;;;;;;;36.00;33.10;;;13.10;99.90;;;;;;4932249;29;20110;-62
2022/05/27 04:00:42;;;;;;;37.00;34.10;;;13.10;99.90;;;;;;4932511;29;20039;-63
2022/05/27 04:03:09;;;;;;;37.00;33.70;;;13.10;99.90;;;;;;4932635;29;20032;-62
2022/05/27 04:05:36;;;;;;;37.65;34.15;;;13.10;99.90;;;;;;4932289;29;20039;-63
2022/05/27 04:08:02;;;;;;;36.40;33.45;;;13.10;99.90;;;;;;4932287;29;20030;-62
2022/05/27 04:10:27;;;;;;;35.85;32.90;;;13.20;99.90;;;;;;4932586;29;20106;-62
2022/05/27 04:12:53;;;;;;;37.05;33.67;;;13.10;99.90;;;;;;4932343;29;20483;-62
2022/05/27 04:15:19;;;;;;;36.67;33.63;;;13.20;99.90;;;;;;4932238;29;20031;-61
2022/05/27 04:17:45;;;;;;;36.53;33.42;;;13.20;99.90;;;;;;4932015;29;20142;-63
2022/05/27 04:20:14;;;;;;;36.53;33.33;;;13.10;99.90;;;;;;4932004;29;20462;-63
2022/05/27 04:22:39;;;;;;;36.35;32.97;;;13.10;99.90;;;;;;4914884;29;20028;-62
2022/05/27 04:25:06;;;;;;;36.05;32.50;;;13.20;99.90;;;;;;4931622;29;20039;-63
2022/05/27 04:27:32;;;;;;;34.22;31.23;;;13.10;99.90;;;;;;4914557;29;20044;-63
2022/05/27 04:29:58;;;;;;;34.97;31.90;;;13.20;99.90;;;;;;4932207;29;20415;-63
2022/05/27 04:32:27;;;;;;;35.55;32.35;;;13.20;99.90;;;;;;4931875;29;20541;-62
2022/05/27 04:34:54;;;;;;;33.35;30.50;;;13.20;99.90;;;;;;4931715;29;20506;-62
2022/05/27 04:37:21;;;;;;;33.85;30.80;;;13.20;99.90;;;;;;4931519;29;20036;-62
2022/05/27 04:39:47;;;;;;;32.10;29.30;;;13.20;99.90;;;;;;4931595;29;20479;-63
2022/05/27 04:42:13;;;;;;;33.90;30.98;;;13.20;99.90;;;;;;4931936;29;20047;-62
2022/05/27 04:44:39;;;;;;;35.42;32.22;;;13.30;99.90;;;;;;4931724;29;20034;-62
2022/05/27 04:47:05;;;;;;;34.40;31.35;;;13.30;99.90;;;;;;4931638;29;20035;-62
2022/05/27 04:52:21;;;;;;;33.70;30.75;;;13.30;99.90;;;;;;4931662;29;20062;-62
2022/05/27 04:54:46;;;;;;;33.95;30.88;;;13.40;99.90;;;;;;4931605;29;20043;-62
2022/05/27 04:57:18;;;;;;;33.80;30.67;;;13.40;99.90;;;;;;4931399;29;20051;-62
2022/05/27 04:59:46;;;;;;;32.72;29.83;;;13.40;99.90;;;;;;4931401;29;20085;-62
2022/05/27 05:02:13;;;;;;;32.85;30.00;;;13.40;99.90;;;;;;4931431;29;20391;-64
2022/05/27 05:04:38;;;;;;;31.52;28.88;;;13.40;99.90;;;;;;4914053;29;20038;-63
2022/05/27 05:07:08;;;;;;;31.42;28.73;;;13.50;99.90;;;;;;4931439;29;20024;-60
2022/05/27 05:09:38;;;;;;;29.63;27.05;;;13.50;99.90;;;;;;4931413;29;20452;-61
2022/05/27 05:12:05;;;;;;;29.92;27.23;;;13.60;99.90;;;;;;4931310;29;20032;-63
2022/05/27 05:14:31;;;;;;;29.88;26.98;;;13.50;99.90;;;;;;4931338;29;20035;-60
2022/05/27 05:16:56;;;;;;;29.50;26.77;;;13.50;99.90;;;;;;4931188;29;20032;-62
2022/05/27 05:19:22;;;;;;;27.20;24.70;;;13.50;99.90;;;;;;4930842;29;20028;-62
2022/05/27 05:21:48;;;;;;;27.40;24.85;;;13.50;99.90;;;;;;4931131;29;20112;-62
2022/05/27 05:24:13;;;;;;;28.33;25.25;;;13.40;99.90;;;;;;4931238;29;20410;-63
2022/05/27 05:26:39;;;;;;;24.52;22.05;;;13.40;99.90;;;;;;4930851;29;20044;-62
2022/05/27 05:29:06;;;;;;;25.63;23.10;;;13.30;99.90;;;;;;4930616;29;20028;-62
2022/05/27 05:31:32;;;;;;;24.45;22.02;;;13.40;99.90;;;;;;4930865;29;20019;-62
2022/05/27 05:33:59;;;;;;;24.38;21.80;;;13.50;99.90;;;;;;4930868;29;20071;-63
2022/05/27 05:36:26;;;;;;;27.35;22.15;;;13.60;99.90;;;;;;4913818;29;20114;-62
2022/05/27 05:38:52;;;;;;;24.20;21.35;;;13.60;99.90;;;;;;4913654;29;20024;-62
2022/05/27 05:41:26;;;;;;;23.40;20.90;;;13.60;99.90;;;;;;4913544;29;20582;-62
2022/05/27 05:43:52;;;;;;;24.17;20.05;;;13.70;99.90;;;;;;4930776;29;20020;-62
2022/05/27 05:46:17;;;;;;;26.10;20.10;;;13.70;99.90;;;;;;4930616;29;20052;-63
2022/05/27 05:48:43;;;;;;;20.95;18.73;;;13.70;99.90;;;;;;4930592;29;20518;-62
2022/05/27 05:51:09;;;;;;;21.63;18.73;;;13.70;99.90;;;;;;4930748;29;20108;-63
2022/05/27 05:53:34;;;;;;;20.63;18.52;;;13.70;99.90;;;;;;4930582;29;20499;-62
2022/05/27 05:56:00;;;;;;;20.83;18.35;;;13.70;99.90;;;;;;4930480;29;20039;-62
2022/05/27 05:58:25;;;;;;;24.02;18.45;;;13.90;99.90;;;;;;4930252;29;20108;-63
2022/05/27 06:00:51;;;;;;;20.38;15.55;;;13.90;99.90;;;;;;4913647;29;20507;-61
2022/05/27 06:03:17;;;;;;;20.13;15.05;;;14.00;99.90;;;;;;4930921;29;20119;-62
2022/05/27 06:05:42;;;;;;;21.38;14.65;;;14.00;99.90;;;;;;4930675;29;20049;-62
2022/05/27 06:08:09;;;;;;;17.75;12.85;;;14.00;99.90;;;;;;4930258;29;20024;-62
2022/05/27 06:10:34;;;;;;;18.67;12.20;;;13.90;99.90;;;;;;4930633;29;20110;-62
2022/05/27 06:13:00;;;;;;;18.48;10.10;;;14.00;99.90;;;;;;4913398;28;20024;-62
2022/05/27 06:15:26;;;;;;;17.38;10.10;;;14.10;99.90;;;;;;4930697;29;20035;-62
2022/05/27 06:17:51;;;;;;;20.08;10.05;;;14.10;99.90;;;;;;4933448;29;20042;-62
2022/05/27 06:20:18;;;;;;;21.45;11.43;;;14.00;99.90;;;;;;4933852;29;20034;-63
2022/05/27 06:22:44;;;;;;;16.17;10.15;;;14.10;99.90;;;;;;4933661;29;20188;-63
2022/05/27 06:25:11;;;;;;;20.90;11.85;;;14.20;99.90;;;;;;4937646;23;20078;-59
2022/05/27 06:27:37;;;;;;;18.58;10.02;;;14.30;99.90;;;;;;4952472;29;20043;-57
2022/05/27 06:35:22;;;;;;;19.38;9.93;;;14.30;99.90;;;;;;4954222;29;20112;-61
2022/05/27 06:37:49;;;;;;;17.08;9.68;;;14.30;99.90;;;;;;4953697;28;20066;-61
2022/05/27 06:40:16;;;;;;;20.63;9.70;;;14.40;99.90;;;;;;4954791;28;20035;-59
2022/05/27 06:42:42;;;;;;;18.80;9.88;;;14.60;99.90;;;;;;4953968;28;20031;-60
2022/05/27 06:45:11;;;;;;;16.98;9.73;;;14.70;99.90;;;;;;4953789;29;20069;-60
2022/05/27 06:47:38;;;;;;;18.42;9.75;;;14.80;99.90;;;;;;4953643;28;20040;-61
2022/05/27 06:50:04;;;;;;;19.95;10.30;;;14.70;99.90;;;;;;5020139;28;20510;-61
2022/05/27 06:52:30;;;;;;;17.63;9.07;;;14.60;99.90;;;;;;4953651;28;20498;-61
2022/05/27 06:54:56;;;;;;;20.05;10.15;;;14.60;99.90;;;;;;4953969;29;20024;-59
2022/05/27 06:57:22;;;;;;;17.05;9.80;;;14.70;99.90;;;;;;4953072;28;20479;-62
2022/05/27 06:59:47;;;;;;;17.90;9.75;;;14.80;99.90;;;;;;4953757;28;20506;-57
2022/05/27 07:02:13;;;;;;;19.05;9.38;;;14.90;99.90;;;;;;5020451;28;20114;-61
2022/05/27 07:04:39;;;;;;;17.42;9.73;;;15.20;99.90;;;;;;4953432;29;20453;-61
2022/05/27 07:07:06;;;;;;;17.73;10.50;;;15.40;99.90;;;;;;4953399;29;20050;-60
2022/05/27 07:09:35;;;;;;;17.13;9.60;;;15.30;99.90;;;;;;4953237;28;20438;-61
2022/05/27 07:12:06;;;;;;;18.55;9.50;;;15.10;99.90;;;;;;4953337;28;20051;-62
2022/05/27 07:14:32;;;;;;;19.38;10.15;;;15.10;99.90;;;;;;4953483;29;20487;-61
2022/05/27 07:16:58;;;;;;;18.73;9.10;;;15.10;99.90;;;;;;5019744;28;20035;-58
2022/05/27 07:19:23;;;;;;;18.88;9.68;;;15.10;99.90;;;;;;4953765;29;20110;-61
2022/05/27 07:21:49;;;;;;;18.83;9.10;;;15.10;99.90;;;;;;4953370;29;20050;-60
2022/05/27 07:24:18;;;;;;;19.17;9.30;;;15.10;99.90;;;;;;4953648;29;20031;-59
2022/05/27 07:26:44;;;;;;;;;;;15.10;99.90;;;;;;4953233;28;20035;-58
2022/05/27 07:29:11;;;;;;;23.00;10.38;;;15.10;99.90;;;;;;4952423;29;20060;-61
2022/05/27 07:31:38;;;;;;;17.17;9.05;;;15.30;99.90;;;;;;4953474;28;20038;-58
2022/05/27 07:34:04;;;;;;;15.30;8.93;;;15.30;99.90;;;;;;4953657;28;20427;-60
2022/05/27 07:36:30;;;;;;;21.80;10.60;;;15.60;99.90;;;;;;4952862;28;20028;-61
2022/05/27 07:38:57;;;;;;;21.15;9.65;;;15.70;99.90;;;;;;5019666;28;20479;-61
2022/05/27 07:41:24;;;;;;;19.58;9.50;;;15.90;99.90;;;;;;5019836;28;20118;-60
2022/05/27 07:43:50;;;;;;;19.70;9.05;;;15.80;99.90;;;;;;4953303;29;20032;-57
2022/05/27 07:46:16;;;;;;;17.75;9.20;;;15.70;99.90;;;;;;4953289;29;20032;-63
2022/05/27 07:48:45;;;;;;;20.52;9.20;;;15.60;99.90;;;;;;4952609;29;20028;-62
2022/05/27 07:51:11;;;;;;;18.10;9.30;;;15.40;99.90;;;;;;5018812;28;20039;-62
2022/05/27 07:53:38;;;;;;;18.77;8.95;;;15.50;99.90;;;;;;4953122;29;20027;-62
2022/05/27 07:56:06;;;;;;;20.30;8.93;;;15.80;99.90;;;;;;5019148;28;20158;-62
2022/05/27 07:58:32;;;;;;;18.25;9.80;;;16.00;99.90;;;;;;5018762;28;20484;-60
2022/05/27 08:00:58;;;;;;;17.73;9.10;;;16.20;99.90;;;;;;4954137;29;20054;-61
2022/05/27 08:03:23;;;;;;;19.67;9.85;;;16.20;99.90;;;;;;4952958;28;20031;-62
2022/05/27 08:05:50;;;;;;;19.52;9.73;;;16.20;99.90;;;;;;4953893;28;20399;-61
2022/05/27 08:08:17;;;;;;;18.13;9.32;;;16.20;99.90;;;;;;5018689;28;20019;-61
2022/05/27 08:10:43;;;;;;;17.52;9.18;;;16.00;99.90;;;;;;5019500;28;20039;-63
2022/05/27 08:13:08;;;;;;;18.27;10.02;;;16.00;99.90;;;;;;4952751;28;20045;-60
2022/05/27 08:15:34;;;;;;;21.25;9.80;;;16.10;99.90;;;;;;4952317;29;20031;-61
2022/05/27 08:18:00;;;;;;;20.30;11.05;;;16.30;99.90;;;;;;5018558;28;20419;-60
2022/05/27 08:20:29;;;;;;;20.73;9.85;;;16.20;99.90;;;;;;4952500;29;20478;-63
2022/05/27 08:22:57;;;;;;;15.68;10.05;;;16.10;99.90;;;;;;5018416;28;20038;-62
2022/05/27 08:25:23;;;;;;;16.80;9.10;;;16.20;99.90;;;;;;5018779;28;20032;-64
2022/05/27 08:27:49;;;;;;;16.10;9.27;;;16.30;99.90;;;;;;5018833;28;20063;-62
2022/05/27 08:30:18;;;;;;;17.25;9.15;;;16.40;99.90;;;;;;4952652;28;20053;-64
2022/05/27 08:32:44;;;;;;;17.50;9.48;;;16.60;99.90;;;;;;4952660;29;20105;-63
2022/05/27 08:38:07;;;;;;;18.13;10.20;;;16.90;99.90;;;;;;4962445;28;20563;-64
2022/05/27 08:40:42;;;;;;;17.56;9.50;;;16.70;99.90;;;;;;4608595;28;10000743;-66
2022/05/27 08:43:23;;;;;;;19.27;9.77;;;16.70;99.90;;;;;;4656998;28;10000329;-64
2022/05/27 08:46:13;;;;;;;22.23;9.63;;;16.60;99.90;;;;;;4944758;28;20117;-61
2022/05/27 08:48:44;;;;;;;17.17;9.32;;;16.60;99.90;;;;;;4949638;29;20027;-63
2022/05/27 08:51:16;;;;;;;18.33;9.52;;;16.60;99.90;;;;;;4950073;28;20376;-65
2022/05/27 08:53:45;;;;;;;17.02;8.73;;;16.70;99.90;;;;;;4943240;28;20074;-63
2022/05/27 08:59:31;;;;;;;17.50;8.98;;;16.90;99.90;;;;;;4949503;29;20169;-65
2022/05/27 09:02:28;;;;;;;24.55;9.65;;;16.90;99.90;;;;;;5004142;28;20415;-65
2022/05/27 09:04:58;;;;;;;18.95;10.35;;;17.30;99.90;;;;;;4951635;28;20039;-63
2022/05/27 09:07:47;;;;;;;16.80;9.32;;;17.00;99.90;;;;;;5003248;28;20554;-62
2022/05/27 09:10:23;;;;;;;20.50;9.27;;;16.90;99.90;;;;;;4939657;28;20035;-62
2022/05/27 09:13:05;;;;;;;19.40;9.65;;;16.90;99.90;;;;;;5006131;28;20069;-64
2022/05/27 09:15:36;;;;;;;19.63;10.23;;;16.90;99.90;;;;;;5005811;28;20035;-64
2022/05/27 09:18:30;;;;;;;17.13;9.45;;;17.10;99.90;;;;;;5008306;28;20034;-64
2022/05/27 09:21:17;;;;;;;17.60;9.48;;;17.30;99.90;;;;;;5005085;28;20109;-64
2022/05/27 09:24:04;;;;;;;18.33;10.10;;;17.20;99.90;;;;;;5007913;28;20510;-63
2022/05/27 09:26:42;;;;;;;18.23;9.93;;;17.10;99.90;;;;;;4939590;28;20098;-64
2022/05/27 09:29:23;;;;;;;19.00;9.60;;;17.20;99.90;;;;;;4940431;29;20142;-66
2022/05/27 09:32:22;;;;;;;18.27;10.10;;;17.10;99.90;;;;;;4940152;29;20019;-66
2022/05/27 09:34:49;;;;;;;19.92;9.55;;;17.20;99.90;;;;;;4966380;28;20707;-61
2022/05/27 09:37:32;;;;;;;19.48;9.95;;;17.30;99.90;;;;;;4940486;28;20073;-65
2022/05/27 09:40:01;;;;;;;18.42;9.25;;;17.20;99.90;;;;;;4951353;29;20023;-67
2022/05/27 09:42:54;;;;;;;18.20;9.35;;;16.90;99.90;;;;;;5017213;28;20483;-66
2022/05/27 09:45:20;;;;;;;18.35;10.00;;;16.70;99.90;;;;;;4951014;29;20035;-63
2022/05/27 09:47:46;;;;;;;17.50;9.80;;;16.80;99.90;;;;;;4940840;29;20073;-65
2022/05/27 09:50:36;;;;;;;19.08;10.10;;;16.80;99.90;;;;;;4940365;28;20089;-61
2022/05/27 09:53:03;;;;;;;18.25;9.90;;;16.70;99.90;;;;;;4939966;28;20066;-59
2022/05/27 09:56:05;;;;;;;21.05;10.05;;;16.60;99.90;;;;;;4938302;29;20058;-66
2022/05/27 09:58:34;;;;;;;19.02;9.40;;;16.90;99.90;;;;;;4984592;28;20043;-63
2022/05/27 10:01:18;;;;;;;16.90;10.00;;;17.20;99.90;;;;;;4931865;29;20514;-62
2022/05/27 10:03:44;;;;;;;18.40;9.13;;;17.20;99.90;;;;;;4932618;28;20546;-59
2022/05/27 10:06:11;;;;;;;22.90;10.05;;;17.20;99.90;;;;;;4931442;29;20028;-62
2022/05/27 10:08:50;;;;;;;20.58;9.52;;;17.30;99.90;;;;;;4931484;28;20437;-63
2022/05/27 10:11:26;;;;;;;17.58;9.82;;;17.20;99.90;;;;;;5004553;28;20425;-61
2022/05/27 10:14:28;;;;;;;18.10;10.02;;;17.30;99.90;;;;;;4950229;29;20382;-62
2022/05/27 10:17:25;;;;;;;19.02;9.35;;;17.40;99.90;;;;;;4950184;29;20418;-64
2022/05/27 10:19:51;;;;;;;23.87;12.47;;;17.20;99.90;;;;;;4950770;29;20035;-62
2022/05/27 10:22:26;;;;;;;16.27;9.60;;;17.30;99.90;;;;;;5016698;28;20279;-68
2022/05/27 10:25:27;;;;;;;18.40;9.55;;;17.60;99.80;;;;;;5016805;28;20034;-61
2022/05/27 10:27:53;;;;;;;17.33;9.40;;;17.80;99.40;;;;;;4950207;28;20039;-62
2022/05/27 10:30:24;;;;;;;19.45;9.68;;;17.70;98.80;;;;;;4950808;29;20027;-66
2022/05/27 10:32:51;;;;;;;18.02;9.18;;;17.60;99.30;;;;;;4950701;29;20469;-62
2022/05/27 10:35:16;;;;;;;21.00;9.80;;;17.50;99.50;;;;;;4950313;28;20028;-63
2022/05/27 10:37:47;;;;;;;19.35;9.50;;;17.40;99.50;;;;;;5015712;28;20119;-61
2022/05/27 10:40:45;;;;;;;21.13;9.95;;;17.40;99.50;;;;;;4950216;28;20027;-62
2022/05/27 10:43:24;;;;;;;17.05;9.55;;;17.60;99.10;;;;;;4957925;28;20122;-63
2022/05/27 10:45:55;;;;;;;21.88;10.23;;;17.60;98.70;;;;;;4949996;29;20024;-62
2022/05/27 10:48:39;;;;;;;18.35;10.25;;;17.60;99.20;;;;;;4950274;29;20152;-63
2022/05/27 10:51:44;;;;;;;19.85;9.88;;;17.50;98.90;;;;;;4950479;29;20118;-62
2022/05/27 10:54:15;;;;;;;16.70;9.90;;;17.60;98.20;;;;;;4950599;29;20027;-66
2022/05/27 11:03:18;;;;;;;18.48;10.18;;;17.80;97.40;;;;;;4953313;29;20030;-64
2022/05/27 11:05:44;;;;;;;18.63;10.18;;;17.90;97.60;;;;;;4953687;29;20522;-66
2022/05/27 11:08:27;;;;;;;17.40;9.88;;;18.10;97.70;;;;;;5019769;28;20085;-64
2022/05/27 11:11:29;;;;;;;18.17;9.57;;;17.90;97.10;;;;;;4953951;29;20103;-64
2022/05/27 11:17:26;;;;;;;18.75;9.73;;;18.50;97.20;;;;;;4953643;29;20046;-63
2022/05/27 11:20:13;;;;;;;24.95;10.30;;;19.10;96.70;;;;;;4996833;28;20115;-62
2022/05/27 11:23:05;;;;;;;16.80;9.13;;;19.90;94.90;;;;;;4267568;28;10000259;-67
2022/05/27 11:25:36;;;;;;;17.60;10.05;;;20.00;95.60;;;;;;4933886;28;20035;-64
2022/05/27 11:28:21;;;;;;;18.52;9.82;;;20.30;94.90;;;;;;4932542;29;20038;-62
2022/05/27 11:31:05;;;;;;;19.58;9.88;;;20.70;94.40;;;;;;4934247;29;20027;-62
2022/05/27 11:33:34;;;;;;;19.80;10.25;;;;;;;;;;4933967;29;20380;-62
2022/05/27 11:36:18;;;;;;;18.58;9.52;;;;;;;;;;4933823;29;20492;-66
2022/05/27 11:38:53;;;;;;;20.08;10.77;;;;;;;;;;4944285;28;20394;-61
2022/05/27 11:41:19;;;;;;;23.17;10.80;;;;;;;;;;4953360;29;20039;-66
2022/05/27 11:43:45;;;;;;;22.02;10.73;;;;;;;;;;4953117;28;20475;-62
2022/05/27 11:46:17;;;;;;;18.63;9.82;;;;;;;;;;4953072;28;20023;-58
2022/05/27 11:48:56;;;;;;;20.70;10.32;;;;;;;;;;4952635;28;20023;-62
2022/05/27 11:51:33;;;;;;;18.98;10.30;;;;;;;;;;4953491;29;20107;-62
2022/05/27 11:54:08;;;;;;;18.77;9.93;;;;;;;;;;4952864;29;20053;-62
2022/05/27 11:56:40;;;;;;;20.77;10.70;;;;;;;;;;4952757;29;20498;-61
2022/05/27 11:59:14;;;;;;;18.17;10.55;;;;;;;;;;4950414;28;20031;-62
2022/05/27 12:01:52;;;;;;;20.27;9.77;;;;;;;;;;4999638;28;20491;-62
2022/05/27 12:04:23;;;;;;;18.15;9.77;;;;;;;;;;4934085;28;20020;-59
2022/05/27 12:06:52;;;;;;;18.20;9.50;;;;;;;;;;4934224;28;20043;-63
2022/05/27 12:09:23;;;;;;;20.40;10.05;;;;;;;;;;4933469;28;20019;-62
2022/05/27 12:11:53;;;;;;;17.45;10.80;;;;;;;;;;4933320;28;20035;-64
2022/05/27 12:14:25;;;;;;;19.90;10.00;;;;;;;;;;4998399;28;20036;-64
2022/05/27 12:16:52;;;;;;;18.17;9.80;;;;;;;;;;4938470;29;20099;-62
2022/05/27 12:19:30;;;;;;;22.15;11.82;;;20.20;94.60;;;;;;4935997;28;20107;-62
2022/05/27 12:22:08;;;;;;;21.65;10.35;;;23.20;84.20;;;;;;4941354;29;20403;-67
2022/05/27 12:24:42;;;;;;;;;;;22.70;83.40;;;;;;4944833;29;20182;-66
2022/05/27 12:27:11;;;;;;;20.48;10.20;;;22.80;85.10;;;;;;4990240;23;19923;-64
2022/05/27 12:29:37;;;;;;;;;;;21.50;82.50;;;;;;4934686;28;20026;-64
2022/05/27 12:32:08;;;;;;;18.23;10.70;;;20.60;83.90;;;;;;4948005;28;20065;-63
2022/05/27 12:34:43;;;;;;;18.27;10.75;;;22.20;84.10;;;;;;4607948;28;10000345;-65
2022/05/27 12:37:17;;;;;;;18.00;10.60;;;23.20;82.60;;;;;;4968429;28;20593;-64
2022/05/27 12:39:44;;;;;;;21.33;11.23;;;23.90;79.80;;;;;;4941211;29;20173;-64
2022/05/27 12:42:32;;;;;;;21.27;10.90;;;23.50;80.50;;;;;;4938117;28;20390;-63
2022/05/27 12:45:11;;;;;;;17.63;11.00;;;23.40;79.10;;;;;;5005518;28;20046;-63
2022/05/27 12:47:37;;;;;;;18.88;11.20;;;24.30;79.20;;;;;;4656410;28;9999816;-64
2022/05/27 12:50:15;;;;;;;22.10;11.40;;;23.80;80.10;;;;;;5006846;28;20487;-64
2022/05/27 12:52:50;;;;;;;19.05;11.27;;;22.70;79.50;;;;;;4939395;28;20058;-64
2022/05/27 13:00:55;;;;;;;18.75;11.13;;;22.40;79.60;;;;;;4942561;29;20033;-64
2022/05/27 13:01:24;;;;;;;19.83;11.70;;;22.20;79.50;;;;;;4942115;29;20033;-61
2022/05/27 13:03:54;;;;;;;18.45;11.35;;;21.90;78.80;;;;;;4935495;29;20085;-63
2022/05/27 13:06:26;;;;;;;19.27;10.90;;;21.10;79.60;;;;;;5006428;28;20039;-66
2022/05/27 13:09:05;;;;;;;18.58;10.93;;;20.20;81.80;;;;;;4942889;28;20031;-63
2022/05/27 13:11:34;;;;;;;17.40;10.82;;;20.80;83.10;;;;;;4940399;29;20028;-66
2022/05/27 13:14:15;;;;;;;20.27;10.60;;;21.60;81.20;;;;;;5005703;28;20028;-61
2022/05/27 13:16:46;;;;;;;17.42;10.73;;;21.60;80.50;;;;;;5005894;28;20031;-64
2022/05/27 13:19:41;;;;;;;18.00;10.70;;;21.50;80.30;;;;;;5006173;28;20024;-64
2022/05/27 13:22:49;;;;;;;19.02;10.73;;;21.40;80.70;;;;;;4945606;28;20122;-64
2022/05/27 13:25:19;;;;;;;20.67;11.70;;;22.50;79.60;;;;;;4939579;28;20040;-63
2022/05/27 13:27:46;;;;;;;18.88;10.80;;;23.30;77.90;;;;;;4940067;29;20403;-61
2022/05/27 13:30:14;;;;;;;22.52;10.85;;;23.20;75.20;;;;;;4597924;28;10000441;-63
2022/05/27 13:32:52;;;;;;;19.23;10.48;;;21.50;76.40;;;;;;4937159;28;20089;-63
2022/05/27 13:35:20;;;;;;;21.17;11.20;;;20.00;77.70;;;;;;4938214;29;20028;-62